Startpagina
METAR-TAF:

METAR-TAF

Vliegvelden :

Aeropuerto Perales

Ibagué, Colombia

breedte: 04-26N, lengte: 075-09W, hoogte: 928 m

Actueel weer

Dit bericht is 1 uur en het 2 minuten geleden gemaakt, om 22:00 UTC
Wind 3 kt uit het zuiden
Temperatuur 28°C
Vochtigheid 66%
Druk 1016 hPa
Zicht 10 km of meer
Verspreide wolken op 3000 ft
Verspreide wolken op 10000 ft

METAR: SKIB 152200Z 17003KT 9999 SCT030 SCT100 28/21 A2999

Tijdstip: 18:02 (23:02 UTC)


TAF: ontbreekt

Waarnemingen en weersverwachtingen van meer dan 4000 vliegvelden (METAR en TAF).

De beschikbare stations zijn de gele en rode punten op de kaart.

Ga met uw muis naar het station om de naam te zien.

Klik dan om waarnemingen en weersverwachtingen te zien.

kaart wijzigen: klik op de groene knoppen met een zwart kruis om in te zoomen, op de groene knop met een streepje om uit te zoomen of op de groene pijlen voor aangrenzende kaarten.


METAR-TAF: